Time;durP1;ratioP1;P1;durP2;ratioP2;P2;SDS_P1;SDS_P2;PMS_P1;PMS_P2;Temp;Humidity;BMP_temperature;BMP_pressure;BME280_temperature;BME280_humidity;BME280_pressure;Samples;Min_cycle;Max_cycle;Signal;HPM_P1;HPM_P2
2022/11/14 00:00:54;;;;;;;53.90;31.20;;;;;;;5.04;98.83;100665.63;419458;1278;145477;-63
2022/11/14 00:11:00;;;;;;;47.20;25.20;;;;;;;5.03;98.83;100660.11;420324;1277;146217;-64
2022/11/14 00:21:06;;;;;;;50.30;27.60;;;;;;;4.99;98.85;100652.20;418870;1277;143027;-64
2022/11/14 00:31:12;;;;;;;49.20;26.90;;;;;;;4.98;98.89;100663.36;419756;1281;145631;-65
2022/11/14 00:41:17;;;;;;;46.60;25.70;;;;;;;4.96;98.99;100655.41;419778;1278;145708;-64
2022/11/14 00:51:23;;;;;;;47.10;28.10;;;;;;;4.94;99.02;100655.81;421085;1281;145586;-64
2022/11/14 01:01:29;;;;;;;43.80;28.40;;;;;;;4.93;99.08;100648.55;420163;1280;143295;-65
2022/11/14 01:11:34;;;;;;;49.20;28.20;;;;;;;4.89;99.06;100633.17;419565;1280;142787;-65
2022/11/14 01:21:40;;;;;;;42.40;27.20;;;;;;;4.86;99.14;100622.67;419873;1277;142639;-64
2022/11/14 01:31:46;;;;;;;42.10;25.20;;;;;;;4.79;99.29;100613.81;419380;1280;143219;-63
2022/11/14 01:41:51;;;;;;;41.70;24.70;;;;;;;4.76;99.26;100600.34;419184;1284;143273;-64
2022/11/14 01:52:02;;;;;;;47.10;26.70;;;;;;;4.73;99.43;100586.72;420009;1284;141660;-65
2022/11/14 02:02:13;;;;;;;43.30;26.60;;;;;;;4.70;99.67;100580.20;421741;1284;143803;-64
2022/11/14 02:12:20;;;;;;;42.10;26.40;;;;;;;4.68;99.83;100572.27;420475;1291;142962;-65
2022/11/14 02:22:26;;;;;;;48.20;26.20;;;;;;;4.64;99.74;100564.91;420378;1289;144058;-65
2022/11/14 02:32:32;;;;;;;43.30;24.10;;;;;;;4.59;99.76;100555.13;420306;1284;142858;-65
2022/11/14 02:42:58;;;;;;;48.30;28.50;;;;;;;4.56;99.97;100536.48;422758;1281;199924;-63
2022/11/14 02:53:03;;;;;;;49.40;26.00;;;;;;;4.54;100.00;100536.69;427732;1287;143054;-64
2022/11/14 03:03:09;;;;;;;41.80;24.20;;;;;;;4.53;100.00;100539.33;419343;1281;141763;-63
2022/11/14 03:13:15;;;;;;;43.80;25.00;;;;;;;4.51;100.00;100530.54;419853;1280;144724;-64
2022/11/14 03:23:21;;;;;;;46.70;26.20;;;;;;;4.47;100.00;100524.20;420054;1285;143934;-64
2022/11/14 03:33:27;;;;;;;48.90;29.00;;;;;;;4.44;100.00;100513.17;419426;1276;143538;-65
2022/11/14 03:43:34;;;;;;;44.80;27.30;;;;;;;4.42;100.00;100501.79;419794;1280;145060;-64
2022/11/14 03:53:38;;;;;;;;;;;;;;;4.40;100.00;100499.58;419913;1280;143295;-65
2022/11/14 04:03:46;;;;;;;43.50;25.60;;;;;;;4.41;100.00;100482.22;421007;1281;170544;-64
2022/11/14 04:13:52;;;;;;;47.40;30.50;;;;;;;4.41;100.00;100472.33;420770;1278;141438;-64
2022/11/14 04:23:58;;;;;;;44.60;24.80;;;;;;;4.36;100.00;100465.67;419971;1280;142802;-63
2022/11/14 04:34:04;;;;;;;48.00;27.60;;;;;;;4.31;100.00;100461.66;421296;1280;142784;-64
2022/11/14 04:44:09;;;;;;;52.90;30.20;;;;;;;4.28;100.00;100460.68;419775;1275;143517;-64
2022/11/14 04:54:15;;;;;;;43.70;25.70;;;;;;;4.25;100.00;100457.29;419518;1285;145231;-65
2022/11/14 05:04:21;;;;;;;43.90;26.90;;;;;;;4.22;100.00;100461.35;420304;1285;143838;-64
2022/11/14 05:14:27;;;;;;;45.80;27.00;;;;;;;4.20;100.00;100460.34;421061;1281;146007;-63
2022/11/14 05:24:32;;;;;;;46.70;28.80;;;;;;;4.18;100.00;100455.38;418910;1277;211824;-64
2022/11/14 05:34:38;;;;;;;43.30;27.20;;;;;;;4.14;100.00;100454.95;420976;1278;143179;-64
2022/11/14 05:44:44;;;;;;;50.10;31.70;;;;;;;4.09;100.00;100458.88;418929;1279;143408;-65
2022/11/14 05:54:50;;;;;;;45.70;26.30;;;;;;;4.00;100.00;100466.68;421473;1283;147758;-64
2022/11/14 06:04:55;;;;;;;52.90;29.20;;;;;;;4.00;100.00;100470.52;420514;1280;143311;-63
2022/11/14 06:15:01;;;;;;;48.90;28.80;;;;;;;3.97;100.00;100471.45;429151;1285;143264;-63
2022/11/14 06:25:08;;;;;;;55.20;32.70;;;;;;;3.96;100.00;100478.21;435973;1283;143735;-64
2022/11/14 06:35:14;;;;;;;45.40;28.00;;;;;;;4.02;100.00;100476.70;428382;1285;143898;-63
2022/11/14 06:45:19;;;;;;;49.00;32.20;;;;;;;4.04;100.00;100489.11;424658;1283;144397;-64
2022/11/14 06:55:25;;;;;;;50.40;30.40;;;;;;;4.06;100.00;100480.95;435918;1285;159329;-64
2022/11/14 07:05:31;;;;;;;54.90;32.70;;;;;;;4.05;100.00;100471.44;436078;1289;143837;-64
2022/11/14 07:15:37;;;;;;;41.10;25.60;;;;;;;4.06;100.00;100469.16;435748;1290;207186;-64
2022/11/14 07:25:42;;;;;;;38.80;25.10;;;;;;;4.03;100.00;100466.11;436181;1282;144202;-64
2022/11/14 07:35:48;;;;;;;42.90;28.10;;;;;;;3.91;100.00;100463.27;435403;1284;146732;-64
2022/11/14 07:45:58;;;;;;;44.70;27.30;;;;;;;3.84;100.00;100457.00;436193;1283;144408;-64
2022/11/14 07:56:08;;;;;;;48.10;28.10;;;;;;;3.95;100.00;100456.23;436172;1284;143612;-63
2022/11/14 08:06:15;;;;;;;44.20;27.10;;;;;;;4.11;100.00;100455.36;435453;1282;143350;-62
2022/11/14 08:16:21;;;;;;;44.00;28.90;;;;;;;4.28;100.00;100451.15;431593;1281;143897;-63
2022/11/14 08:26:26;;;;;;;45.30;31.20;;;;;;;4.37;100.00;100445.89;436140;1283;143822;-63
2022/11/14 08:36:39;;;;;;;36.90;24.10;;;;;;;4.41;100.00;100432.27;435640;1283;198104;-63
2022/11/14 08:46:44;;;;;;;37.60;22.60;;;;;;;4.48;100.00;100431.06;436195;1284;144376;-63
2022/11/14 08:56:50;;;;;;;39.10;25.30;;;;;;;4.53;100.00;100437.70;435447;1282;143241;-64
2022/11/14 09:06:57;;;;;;;41.40;25.40;;;;;;;4.54;100.00;100427.29;430086;1285;144353;-64
2022/11/14 09:17:03;;;;;;;40.10;25.20;;;;;;;4.52;100.00;100421.95;436130;1285;143241;-63
2022/11/14 09:27:10;;;;;;;45.00;25.40;;;;;;;4.59;100.00;100410.50;435430;1276;144726;-63
2022/11/14 09:37:16;;;;;;;38.70;25.80;;;;;;;4.70;100.00;100395.48;436147;1276;143089;-64
2022/11/14 09:47:27;;;;;;;38.60;24.50;;;;;;;4.92;100.00;100383.44;436231;1283;142901;-63
2022/11/14 09:57:34;;;;;;;43.50;27.70;;;;;;;4.99;100.00;100391.92;435663;1280;212339;-64
2022/11/14 10:07:49;;;;;;;49.70;30.10;;;;;;;4.90;100.00;100385.56;436173;1280;144231;-63
2022/11/14 10:18:21;;;;;;;42.30;26.30;;;;;;;5.17;99.99;100372.16;435506;1282;143550;-64
2022/11/14 10:28:40;;;;;;;36.10;26.90;;;;;;;5.20;99.87;100368.41;436248;1284;143071;-64
2022/11/14 10:38:52;;;;;;;40.30;27.00;;;;;;;5.18;99.53;100361.52;435402;1284;143038;-63
2022/11/14 10:48:59;;;;;;;40.30;28.20;;;;;;;5.15;99.71;100360.39;436181;1283;144075;-64
2022/11/14 10:59:06;;;;;;;41.00;25.30;;;;;;;5.33;99.68;100339.05;436247;1275;142694;-63
2022/11/14 11:19:42;;;;;;;46.80;30.20;;;;;;;5.49;99.05;100304.52;431836;1278;143402;-63
2022/11/14 11:29:47;;;;;;;50.30;32.80;;;;;;;5.63;98.97;100290.86;435537;1277;144037;-64
2022/11/14 11:39:56;;;;;;;41.60;26.90;;;;;;;5.56;98.11;100282.58;436222;1282;143666;-65
2022/11/14 11:50:04;;;;;;;41.00;29.30;;;;;;;5.45;97.90;100272.16;436244;1283;145206;-65
2022/11/14 12:00:17;;;;;;;38.50;27.70;;;;;;;5.20;97.76;100272.95;428072;1278;142825;-64
2022/11/14 12:10:26;;;;;;;43.60;26.80;;;;;;;5.09;98.08;100273.29;436208;1281;142990;-63
2022/11/14 12:20:52;;;;;;;37.20;25.80;;;;;;;4.98;98.34;100271.00;427199;1277;143289;-63
2022/11/14 12:31:02;;;;;;;41.50;27.30;;;;;;;4.98;98.49;100253.83;435853;1291;212578;-63
2022/11/14 12:41:09;;;;;;;36.10;23.70;;;;;;;5.08;98.59;100232.36;429471;1284;144683;-64
2022/11/14 12:51:51;;;;;;;37.30;26.10;;;;;;;5.17;98.44;100224.27;434936;1283;146668;-64
2022/11/14 13:02:15;;;;;;;37.30;24.20;;;;;;;5.28;98.35;100224.95;434234;1284;143105;-63
2022/11/14 13:22:58;;;;;;;41.20;24.30;;;;;;;4.98;98.38;100210.42;436154;1282;195951;-64
2022/11/14 13:33:04;;;;;;;33.90;24.30;;;;;;;5.02;98.46;100203.54;435492;1284;146329;-63
2022/11/14 13:43:21;;;;;;;44.20;27.50;;;;;;;5.10;98.76;100196.36;436244;1283;143446;-62
2022/11/14 13:53:30;;;;;;;45.70;27.40;;;;;;;5.04;98.48;100192.21;436268;1283;143049;-63
2022/11/14 14:03:50;;;;;;;43.10;26.60;;;;;;;4.90;98.74;100191.08;435796;1284;209445;-63
2022/11/14 14:14:05;;;;;;;42.30;27.10;;;;;;;4.86;98.93;100184.79;436215;1289;143134;-63
2022/11/14 14:24:26;;;;;;;40.70;26.80;;;;;;;4.72;98.97;100177.05;435496;1280;143043;-62
2022/11/14 14:34:33;;;;;;;38.80;25.80;;;;;;;4.59;99.25;100154.35;436288;1277;144282;-63
2022/11/14 14:44:40;;;;;;;35.20;23.50;;;;;;;4.55;99.26;100136.29;431648;1280;143182;-63
2022/11/14 14:54:55;;;;;;;32.70;22.20;;;;;;;4.46;99.35;100148.34;436179;1276;142533;-63
2022/11/14 15:05:02;;;;;;;34.70;24.50;;;;;;;4.41;99.61;100150.38;436222;1291;143388;-63
2022/11/14 15:15:24;;;;;;;39.00;25.40;;;;;;;4.43;99.71;100152.76;431340;1283;145897;-64
2022/11/14 15:25:30;;;;;;;39.70;24.40;;;;;;;4.39;99.86;100148.38;436235;1284;143753;-63
2022/11/14 15:35:37;;;;;;;38.50;25.30;;;;;;;4.34;99.87;100130.48;435494;1283;142722;-64
2022/11/14 15:45:43;;;;;;;35.30;23.70;;;;;;;4.29;100.00;100114.86;436207;1281;143160;-64
2022/11/14 15:55:49;;;;;;;39.90;25.90;;;;;;;4.25;100.00;100112.55;435872;1285;144483;-63
2022/11/14 16:05:55;;;;;;;41.80;27.90;;;;;;;4.22;100.00;100079.55;435232;1277;142830;-64
2022/11/14 16:16:00;;;;;;;48.70;29.70;;;;;;;4.13;100.00;100060.94;430961;1280;144519;-63
2022/11/14 16:26:06;;;;;;;49.60;31.70;;;;;;;4.04;100.00;100062.73;433705;1284;143541;-64
2022/11/14 16:36:12;;;;;;;43.90;27.90;;;;;;;3.87;100.00;100053.52;433554;1281;142868;-64
2022/11/14 16:46:18;;;;;;;52.00;34.60;;;;;;;3.69;100.00;100054.88;433016;1283;143139;-63
2022/11/14 16:56:24;;;;;;;50.10;32.70;;;;;;;3.61;100.00;100049.77;435991;1275;144253;-63
2022/11/14 17:06:30;;;;;;;50.10;30.40;;;;;;;3.54;100.00;100039.55;430775;1284;143119;-63
2022/11/14 17:16:36;;;;;;;55.90;34.30;;;;;;;3.50;100.00;100032.07;427221;1280;152740;-63
2022/11/14 17:26:42;;;;;;;56.70;33.50;;;;;;;3.45;100.00;100018.35;424468;1278;144523;-64
2022/11/14 17:36:47;;;;;;;58.90;36.20;;;;;;;3.36;100.00;100023.25;436113;1283;143682;-62
2022/11/14 17:46:53;;;;;;;62.60;38.00;;;;;;;3.46;100.00;100024.73;433814;1285;143312;-63
2022/11/14 17:56:59;;;;;;;67.90;37.90;;;;;;;3.61;100.00;100024.47;435379;1290;143683;-63
2022/11/14 18:07:05;;;;;;;65.50;38.30;;;;;;;3.66;100.00;100019.84;432967;1284;142101;-63
2022/11/14 18:17:11;;;;;;;74.50;38.50;;;;;;;3.67;100.00;100017.39;420020;1280;143183;-63
2022/11/14 18:27:18;;;;;;;68.30;37.50;;;;;;;3.61;100.00;100004.22;430150;1285;142990;-65
2022/11/14 18:37:24;;;;;;;58.70;35.90;;;;;;;3.65;100.00;99995.29;436207;1284;143693;-63
2022/11/14 18:47:31;;;;;;;67.80;39.70;;;;;;;3.70;100.00;99991.33;436203;1281;143521;-64
2022/11/14 18:57:35;;;;;;;;;;;;;;;3.74;100.00;99982.02;435698;1288;212807;-63
2022/11/14 19:07:41;;;;;;;58.00;38.30;;;;;;;3.80;100.00;99981.68;436430;1283;129213;-62
2022/11/14 19:17:48;;;;;;;61.40;35.10;;;;;;;3.91;100.00;99984.48;426061;1284;144582;-63
2022/11/14 19:27:54;;;;;;;56.60;35.40;;;;;;;3.97;100.00;99970.98;428628;1287;143031;-63
2022/11/14 19:38:00;;;;;;;57.80;34.90;;;;;;;3.96;100.00;99966.30;420007;1285;142569;-63
2022/11/14 19:48:06;;;;;;;52.10;32.70;;;;;;;3.88;100.00;99957.19;434488;1290;143464;-64
2022/11/14 19:58:12;;;;;;;62.20;34.20;;;;;;;3.88;100.00;99953.04;434727;1285;142446;-63
2022/11/14 20:08:18;;;;;;;52.50;33.70;;;;;;;3.89;100.00;99945.73;433907;1280;143233;-63
2022/11/14 20:18:23;;;;;;;55.70;34.20;;;;;;;3.89;100.00;99945.04;435208;1284;147070;-63
2022/11/14 20:28:29;;;;;;;48.50;33.50;;;;;;;3.90;100.00;99938.79;435981;1285;143717;-62
2022/11/14 20:38:35;;;;;;;57.60;31.80;;;;;;;3.93;100.00;99927.43;435199;1280;143854;-61
2022/11/14 20:48:42;;;;;;;50.80;32.90;;;;;;;3.94;100.00;99922.90;431598;1280;197143;-61
2022/11/14 20:58:50;;;;;;;53.30;36.80;;;;;;;3.91;100.00;99912.77;432331;1283;143513;-62
2022/11/14 21:08:56;;;;;;;57.90;36.90;;;;;;;3.83;100.00;99902.79;435139;1284;199321;-61
2022/11/14 21:19:03;;;;;;;56.50;35.50;;;;;;;3.78;100.00;99901.55;435987;1288;189377;-62
2022/11/14 21:29:14;;;;;;;56.20;37.80;;;;;;;3.82;100.00;99900.05;436001;1289;143369;-61
2022/11/14 21:39:20;;;;;;;57.00;33.70;;;;;;;3.77;100.00;99900.89;429991;1284;143228;-61
2022/11/14 21:49:25;;;;;;;62.40;38.50;;;;;;;3.72;100.00;99881.83;418871;1283;144104;-61
2022/11/14 21:59:32;;;;;;;73.80;40.30;;;;;;;3.64;100.00;99867.35;418667;1277;143388;-61
2022/11/14 22:09:38;;;;;;;78.00;44.70;;;;;;;3.60;100.00;99860.73;435473;1284;143243;-61
2022/11/14 22:19:49;;;;;;;79.00;44.20;;;;;;;3.60;100.00;99850.67;429132;1283;143656;-61
2022/11/14 22:29:55;;;;;;;64.30;39.30;;;;;;;3.59;100.00;99838.92;420156;1283;142099;-62
2022/11/14 22:40:01;;;;;;;68.10;40.50;;;;;;;3.61;100.00;99837.83;435869;1283;145207;-62
2022/11/14 22:50:08;;;;;;;65.10;40.90;;;;;;;3.61;100.00;99836.80;428149;1290;143015;-61
2022/11/14 23:00:17;;;;;;;66.40;38.80;;;;;;;3.60;100.00;99830.77;435283;1280;144351;-62
2022/11/14 23:10:22;;;;;;;73.20;43.80;;;;;;;3.58;100.00;99818.20;435883;1284;185597;-61
2022/11/14 23:20:28;;;;;;;60.50;37.40;;;;;;;3.57;100.00;99804.37;436048;1283;142292;-62
2022/11/14 23:30:36;;;;;;;61.00;36.00;;;;;;;3.52;100.00;99794.84;431136;1275;210650;-62
2022/11/14 23:40:42;;;;;;;59.30;34.50;;;;;;;3.52;100.00;99783.59;435970;1283;144492;-61
2022/11/14 23:50:51;;;;;;;55.10;35.50;;;;;;;3.45;100.00;99778.79;435306;1284;143623;-62
